Time;durP1;ratioP1;P1;durP2;ratioP2;P2;SDS_P1;SDS_P2;PMS_P1;PMS_P2;Temp;Humidity;BMP_temperature;BMP_pressure;BME280_temperature;BME280_humidity;BME280_pressure;Samples;Min_cycle;Max_cycle;Signal;HPM_P1;HPM_P2
2022/03/10 00:00:55;;;;;;;4.15;3.85;;;;;;;;;;5058491;28;20213;-79
2022/03/10 00:03:22;;;;;;;3.58;3.28;;;;;;;;;;5057129;28;20202;-79
2022/03/10 00:05:49;;;;;;;3.90;3.42;;;;;;;;;;5057592;28;20668;-79
2022/03/10 00:08:18;;;;;;;3.40;3.10;;;;;;;;;;5056706;28;20201;-79
2022/03/10 00:10:45;;;;;;;3.20;3.00;;;;;;;;;;5056908;28;20218;-79
2022/03/10 00:13:12;;;;;;;3.50;3.20;;;;;;;;;;5056773;28;20205;-79
2022/03/10 00:15:40;;;;;;;3.50;3.20;;;;;;;;;;5056781;28;20222;-79
2022/03/10 00:18:07;;;;;;;5.13;3.50;;;;;;;;;;5057830;28;20202;-79
2022/03/10 00:20:34;;;;;;;3.83;3.63;;;;;;;;;;5057665;28;20194;-79
2022/03/10 00:23:02;;;;;;;4.15;3.75;;;;;;;;;;5056851;28;20201;-78
2022/03/10 00:25:32;;;;;;;3.72;3.40;;;;;;;;;;5055558;28;20221;-79
2022/03/10 00:28:00;;;;;;;4.45;3.70;;;;;;;;;;5056810;28;20568;-78
2022/03/10 00:30:27;;;;;;;3.90;3.60;;;;;;;;;;5058469;28;20225;-78
2022/03/10 00:32:54;;;;;;;3.65;3.35;;;;;;;;;;5057246;28;20213;-78
2022/03/10 00:35:24;;;;;;;3.90;3.40;;;;;;;;;;5057235;28;20222;-79
2022/03/10 00:37:53;;;;;;;3.67;3.38;;;;;;;;;;5057240;28;20205;-78
2022/03/10 00:40:20;;;;;;;3.78;3.47;;;;;;;;;;5057528;28;20259;-80
2022/03/10 00:42:49;;;;;;;4.35;3.95;;;;;;;;;;5056737;28;20197;-79
2022/03/10 00:45:17;;;;;;;3.78;3.47;;;;;;;;;;5065039;28;20226;-79
2022/03/10 00:47:45;;;;;;;5.03;4.25;;;;;;;;;;5065473;28;20206;-78
2022/03/10 00:50:13;;;;;;;5.75;4.13;;;;;;;;;;5064556;28;20235;-78
2022/03/10 00:52:41;;;;;;;5.47;4.97;;;;;;;;;;5066706;28;20202;-77
2022/03/10 00:55:10;;;;;;;4.43;3.90;;;;;;;;;;5062061;28;20407;-79
2022/03/10 00:57:37;;;;;;;5.03;4.57;;;;;;;;;;5060414;28;20201;-77
2022/03/10 01:00:08;;;;;;;4.07;3.67;;;;;;;;;;5058739;28;20214;-79
2022/03/10 01:02:36;;;;;;;5.20;4.53;;;;;;;;;;5055781;28;20193;-79
2022/03/10 01:05:05;;;;;;;5.55;4.60;;;;;;;;;;5059391;28;20229;-78
2022/03/10 01:07:32;;;;;;;5.38;4.82;;;;;;;;;;5060559;28;20251;-79
2022/03/10 01:10:00;;;;;;;5.93;5.13;;;;;;;;;;5060919;28;20208;-79
2022/03/10 01:12:27;;;;;;;6.18;5.00;;;;;;;;;;5060580;28;20228;-78
2022/03/10 01:14:54;;;;;;;5.00;4.47;;;;;;;;;;5063752;28;20218;-77
2022/03/10 01:17:23;;;;;;;5.95;5.13;;;;;;;;;;5062725;28;20201;-78
2022/03/10 01:19:50;;;;;;;5.38;4.85;;;;;;;;;;5062437;28;20601;-79
2022/03/10 01:22:18;;;;;;;8.57;7.32;;;;;;;;;;5060519;28;20228;-79
2022/03/10 01:24:46;;;;;;;6.22;5.63;;;;;;;;;;5060088;28;20225;-79
2022/03/10 01:27:13;;;;;;;7.55;6.20;;;;;;;;;;5060081;28;20230;-79
2022/03/10 01:29:40;;;;;;;5.07;4.57;;;;;;;;;;5058784;28;20204;-79
2022/03/10 01:32:08;;;;;;;8.95;5.95;;;;;;;;;;5059679;28;20236;-79
2022/03/10 01:34:37;;;;;;;7.43;5.82;;;;;;;;;;5059902;28;20688;-79
2022/03/10 01:37:05;;;;;;;6.75;5.70;;;;;;;;;;5060244;28;20268;-78
2022/03/10 01:39:33;;;;;;;6.63;5.70;;;;;;;;;;5060002;28;20847;-79
2022/03/10 01:42:03;;;;;;;9.02;6.60;;;;;;;;;;5059914;28;20666;-79
2022/03/10 01:44:30;;;;;;;7.10;6.22;;;;;;;;;;5059665;28;20225;-79
2022/03/10 01:46:58;;;;;;;6.95;6.22;;;;;;;;;;5059469;28;20194;-78
2022/03/10 01:49:25;;;;;;;6.53;5.72;;;;;;;;;;5058510;28;20685;-79
2022/03/10 01:51:54;;;;;;;8.02;6.82;;;;;;;;;;5059615;28;20227;-79
2022/03/10 01:54:21;;;;;;;7.75;5.93;;;;;;;;;;5058553;28;20225;-79
2022/03/10 01:56:49;;;;;;;7.53;5.35;;;;;;;;;;5059366;28;20206;-78
2022/03/10 01:59:16;;;;;;;5.00;4.50;;;;;;;;;;5058677;28;20201;-79
2022/03/10 02:01:44;;;;;;;5.00;4.50;;;;;;;;;;5057752;28;20198;-79
2022/03/10 02:04:11;;;;;;;5.10;4.60;;;;;;;;;;5058364;28;20214;-78
2022/03/10 02:06:39;;;;;;;11.23;5.25;;;;;;;;;;5058645;28;20239;-79
2022/03/10 02:11:53;;;;;;;5.53;4.95;;;;;;;;;;5058061;28;20257;-79
2022/03/10 02:17:21;;;;;;;5.22;4.13;;;;;;;;;;5055477;28;20208;-79
2022/03/10 02:19:50;;;;;;;6.28;4.80;;;;;;;;;;5055716;28;20209;-79
2022/03/10 02:22:19;;;;;;;7.40;5.30;;;;;;;;;;5055975;28;20225;-79
2022/03/10 02:24:47;;;;;;;5.88;4.90;;;;;;;;;;5055739;28;20312;-79
2022/03/10 02:27:18;;;;;;;5.28;4.75;;;;;;;;;;5056813;28;20222;-79
2022/03/10 02:29:45;;;;;;;7.22;5.47;;;;;;;;;;5057888;28;20240;-79
2022/03/10 02:32:14;;;;;;;5.95;4.85;;;;;;;;;;5056819;28;20229;-79
2022/03/10 02:34:42;;;;;;;6.30;5.70;;;;;;;;;;5057451;28;20646;-78
2022/03/10 02:37:10;;;;;;;5.47;4.40;;;;;;;;;;5057567;28;20224;-77
2022/03/10 02:39:40;;;;;;;5.10;4.60;;;;;;;;;;5056961;28;20209;-79
2022/03/10 02:42:08;;;;;;;5.35;4.82;;;;;;;;;;5056996;28;20201;-79
2022/03/10 02:44:39;;;;;;;6.13;5.63;;;;;;;;;;5057450;28;20225;-79
2022/03/10 02:47:07;;;;;;;5.50;4.82;;;;;;;;;;5057045;28;20251;-79
2022/03/10 02:49:34;;;;;;;7.32;4.90;;;;;;;;;;5056335;28;20724;-78
2022/03/10 02:52:03;;;;;;;5.47;4.88;;;;;;;;;;5056019;28;20711;-79
2022/03/10 02:54:31;;;;;;;5.80;4.85;;;;;;;;;;5056364;28;20217;-79
2022/03/10 02:57:00;;;;;;;5.22;4.68;;;;;;;;;;5056464;28;20205;-79
2022/03/10 02:59:27;;;;;;;6.40;5.70;;;;;;;;;;5056414;28;20197;-78
2022/03/10 03:01:56;;;;;;;6.15;5.55;;;;;;;;;;5055030;28;20224;-78
2022/03/10 03:04:23;;;;;;;6.10;5.25;;;;;;;;;;5055444;28;20651;-79
2022/03/10 03:06:50;;;;;;;5.30;4.80;;;;;;;;;;5055517;28;20205;-78
2022/03/10 03:09:18;;;;;;;5.40;4.80;;;;;;;;;;5059759;28;20201;-79
2022/03/10 03:11:45;;;;;;;5.35;4.40;;;;;;;;;;5059823;28;20201;-78
2022/03/10 03:14:14;;;;;;;5.55;5.00;;;;;;;;;;5059904;28;20267;-78
2022/03/10 03:16:41;;;;;;;6.35;4.90;;;;;;;;;;5060431;28;20699;-78
2022/03/10 03:19:09;;;;;;;5.30;4.80;;;;;;;;;;5058892;28;20210;-77
2022/03/10 03:21:36;;;;;;;5.93;4.32;;;;;;;;;;5058847;28;20209;-77
2022/03/10 03:24:03;;;;;;;5.40;4.90;;;;;;;;;;5060910;28;20622;-79
2022/03/10 03:26:31;;;;;;;6.93;4.38;;;;;;;;;;5060090;28;20670;-78
2022/03/10 03:28:58;;;;;;;5.35;4.70;;;;;;;;;;5058422;28;20229;-79
2022/03/10 03:31:27;;;;;;;4.60;4.20;;;;;;;;;;5060237;28;20201;-79
2022/03/10 03:33:54;;;;;;;4.20;3.80;;;;;;;;;;5059814;28;20237;-79
2022/03/10 03:36:21;;;;;;;4.78;4.28;;;;;;;;;;5059858;28;20259;-79
2022/03/10 03:38:49;;;;;;;6.70;6.15;;;;;;;;;;5059751;28;20220;-79
2022/03/10 03:41:16;;;;;;;6.22;5.32;;;;;;;;;;5058984;28;20201;-79
2022/03/10 03:43:43;;;;;;;4.95;4.47;;;;;;;;;;5059377;28;20225;-78
2022/03/10 03:46:11;;;;;;;4.60;4.20;;;;;;;;;;5059164;28;20221;-79
2022/03/10 03:48:40;;;;;;;5.38;4.20;;;;;;;;;;5059278;28;20217;-78
2022/03/10 03:51:07;;;;;;;5.97;4.60;;;;;;;;;;5059103;28;20233;-79
2022/03/10 03:53:35;;;;;;;5.28;4.60;;;;;;;;;;5058722;28;20701;-79
2022/03/10 03:56:02;;;;;;;5.35;4.80;;;;;;;;;;5058568;28;20224;-79
2022/03/10 03:58:29;;;;;;;4.35;3.92;;;;;;;;;;5059617;28;20705;-79
2022/03/10 04:00:57;;;;;;;4.88;4.22;;;;;;;;;;5059037;28;20208;-79
2022/03/10 04:03:24;;;;;;;6.60;4.93;;;;;;;;;;5058225;28;20197;-78
2022/03/10 04:05:53;;;;;;;5.65;4.30;;;;;;;;;;5058536;28;20209;-79
2022/03/10 04:08:21;;;;;;;5.20;4.70;;;;;;;;;;5059170;28;20202;-79
2022/03/10 04:10:51;;;;;;;5.60;4.45;;;;;;;;;;5059638;28;20204;-79
2022/03/10 04:13:18;;;;;;;5.72;5.22;;;;;;;;;;5059587;28;20221;-78
2022/03/10 04:15:45;;;;;;;7.05;5.63;;;;;;;;;;5059324;28;20201;-79
2022/03/10 04:18:13;;;;;;;5.57;4.78;;;;;;;;;;5058415;28;20209;-78
2022/03/10 04:20:40;;;;;;;5.60;4.78;;;;;;;;;;5057108;28;20202;-78
2022/03/10 04:23:09;;;;;;;5.25;4.78;;;;;;;;;;5058448;28;20205;-79
2022/03/10 04:25:37;;;;;;;4.65;3.80;;;;;;;;;;5057892;28;20316;-80
2022/03/10 04:28:05;;;;;;;4.88;3.83;;;;;;;;;;5057606;28;20248;-79
2022/03/10 04:30:33;;;;;;;4.00;3.67;;;;;;;;;;5057547;28;20565;-78
2022/03/10 04:33:02;;;;;;;4.13;3.75;;;;;;;;;;5057907;28;20226;-79
2022/03/10 04:35:30;;;;;;;3.33;3.03;;;;;;;;;;5058108;28;20229;-79
2022/03/10 04:37:57;;;;;;;3.45;3.15;;;;;;;;;;5057853;28;20251;-79
2022/03/10 04:40:27;;;;;;;4.63;4.13;;;;;;;;;;5057650;28;20210;-78
2022/03/10 04:42:54;;;;;;;4.78;4.15;;;;;;;;;;5056576;28;20208;-79
2022/03/10 04:45:22;;;;;;;4.40;3.90;;;;;;;;;;5057294;28;20222;-79
2022/03/10 04:47:49;;;;;;;5.35;4.75;;;;;;;;;;5058411;28;20692;-79
2022/03/10 04:50:19;;;;;;;5.90;4.50;;;;;;;;;;5057844;28;20213;-79
2022/03/10 04:52:47;;;;;;;4.93;4.47;;;;;;;;;;5058353;28;20232;-78
2022/03/10 04:55:15;;;;;;;5.25;4.47;;;;;;;;;;5058670;28;20229;-79
2022/03/10 04:57:43;;;;;;;7.90;6.22;;;;;;;;;;5057656;28;20201;-78
2022/03/10 05:00:18;;;;;;;5.72;4.97;;;;;;;;;;5057487;28;20687;-79
2022/03/10 05:02:46;;;;;;;6.45;5.45;;;;;;;;;;5057621;28;20208;-78
2022/03/10 05:05:14;;;;;;;6.25;5.18;;;;;;;;;;5056632;28;20230;-78
2022/03/10 05:07:42;;;;;;;5.80;5.15;;;;;;;;;;5055533;28;20234;-77
2022/03/10 05:10:10;;;;;;;6.40;5.80;;;;;;;;;;5055208;28;20631;-78
2022/03/10 05:12:47;;;;;;;8.93;6.30;;;;;;;;;;5054658;28;20201;-77
2022/03/10 05:15:19;;;;;;;7.10;6.38;;;;;;;;;;5055479;28;20744;-78
2022/03/10 05:17:46;;;;;;;9.30;7.07;;;;;;;;;;5055125;28;20201;-78
2022/03/10 05:20:14;;;;;;;10.07;7.78;;;;;;;;;;5035459;28;20224;-77
2022/03/10 05:22:46;;;;;;;9.98;6.65;;;;;;;;;;5035640;28;20194;-78
2022/03/10 05:25:15;;;;;;;7.20;6.45;;;;;;;;;;5038498;28;20226;-79
2022/03/10 05:27:44;;;;;;;8.60;7.57;;;;;;;;;;5034545;28;20206;-78
2022/03/10 05:30:13;;;;;;;8.43;7.15;;;;;;;;;;5035325;28;20203;-77
2022/03/10 05:32:41;;;;;;;8.82;7.35;;;;;;;;;;5034696;28;20209;-77
2022/03/10 05:35:10;;;;;;;9.30;8.27;;;;;;;;;;5035757;28;20226;-77
2022/03/10 05:37:40;;;;;;;12.27;7.88;;;;;;;;;;5034710;28;20210;-78
2022/03/10 05:40:10;;;;;;;10.45;8.45;;;;;;;;;;5035240;28;20297;-78
2022/03/10 05:42:38;;;;;;;10.85;8.45;;;;;;;;;;5034610;28;20202;-78
2022/03/10 05:45:09;;;;;;;9.07;8.02;;;;;;;;;;5035265;28;20233;-80
2022/03/10 05:47:38;;;;;;;11.38;8.07;;;;;;;;;;5034263;28;20209;-79
2022/03/10 05:50:07;;;;;;;11.07;8.35;;;;;;;;;;5052830;28;20244;-80
2022/03/10 05:52:34;;;;;;;9.57;8.50;;;;;;;;;;5056903;28;20747;-79
2022/03/10 05:55:01;;;;;;;8.95;7.30;;;;;;;;;;5053359;28;20230;-79
2022/03/10 05:57:29;;;;;;;9.18;7.25;;;;;;;;;;5053345;28;20201;-80
2022/03/10 05:59:56;;;;;;;8.70;7.45;;;;;;;;;;5052876;28;20210;-79
2022/03/10 06:02:25;;;;;;;8.05;6.93;;;;;;;;;;5053087;28;20575;-80
2022/03/10 06:04:53;;;;;;;6.63;5.95;;;;;;;;;;5052289;28;20225;-80
2022/03/10 06:07:20;;;;;;;9.07;7.40;;;;;;;;;;5053120;28;20202;-80
2022/03/10 06:09:47;;;;;;;7.15;6.45;;;;;;;;;;5053297;28;20284;-79
2022/03/10 06:12:14;;;;;;;5.82;5.22;;;;;;;;;;5052546;28;20210;-80
2022/03/10 06:14:44;;;;;;;8.80;7.00;;;;;;;;;;5052200;28;20229;-80
2022/03/10 06:17:11;;;;;;;8.27;6.28;;;;;;;;;;5043032;28;20263;-80
2022/03/10 06:19:40;;;;;;;9.00;6.90;;;;;;;;;;5053136;28;20225;-81
2022/03/10 06:22:07;;;;;;;7.45;6.47;;;;;;;;;;5055193;28;20197;-79
2022/03/10 06:24:35;;;;;;;8.00;6.70;;;;;;;;;;5053285;28;20213;-79
2022/03/10 06:27:02;;;;;;;10.13;6.85;;;;;;;;;;5053360;28;20209;-80
2022/03/10 06:29:29;;;;;;;8.13;6.88;;;;;;;;;;5052977;28;20211;-79
2022/03/10 06:31:57;;;;;;;8.57;7.43;;;;;;;;;;5052813;28;20209;-79
2022/03/10 06:34:24;;;;;;;7.97;6.32;;;;;;;;;;5052548;28;20233;-79
2022/03/10 06:36:52;;;;;;;6.95;5.90;;;;;;;;;;5069459;28;20251;-80
2022/03/10 06:39:20;;;;;;;6.32;5.75;;;;;;;;;;5072039;28;20205;-80
2022/03/10 06:41:47;;;;;;;8.65;6.80;;;;;;;;;;5071447;28;20212;-79
2022/03/10 06:44:14;;;;;;;8.50;6.93;;;;;;;;;;5062396;28;20225;-80
2022/03/10 06:46:42;;;;;;;9.95;6.68;;;;;;;;;;5052811;28;20213;-80
2022/03/10 06:49:09;;;;;;;8.50;7.20;;;;;;;;;;5052293;28;20919;-79
2022/03/10 06:51:37;;;;;;;9.82;7.43;;;;;;;;;;5052870;28;20720;-80
2022/03/10 06:54:05;;;;;;;14.60;7.72;;;;;;;;;;5052022;28;20612;-79
2022/03/10 06:56:33;;;;;;;8.48;6.05;;;;;;;;;;5052453;28;20210;-80
2022/03/10 06:59:00;;;;;;;8.68;6.78;;;;;;;;;;5055246;28;20206;-79
2022/03/10 07:01:27;;;;;;;10.90;8.23;;;;;;;;;;5073137;28;20207;-83
2022/03/10 07:03:57;;;;;;;10.35;8.02;;;;;;;;;;5071942;28;20266;-81
2022/03/10 07:06:24;;;;;;;14.18;8.70;;;;;;;;;;5073208;28;20206;-81
2022/03/10 07:08:52;;;;;;;11.10;8.07;;;;;;;;;;5072582;28;20256;-80
2022/03/10 07:11:21;;;;;;;11.02;8.73;;;;;;;;;;5073027;28;20205;-82
2022/03/10 07:13:48;;;;;;;11.30;8.52;;;;;;;;;;5072651;28;20257;-83
2022/03/10 07:16:16;;;;;;;14.02;9.57;;;;;;;;;;5072766;28;20236;-81
2022/03/10 07:18:50;;;;;;;12.57;8.73;;;;;;;;;;5062420;28;20205;-81
2022/03/10 07:21:18;;;;;;;11.98;8.88;;;;;;;;;;5053875;28;20210;-81
2022/03/10 07:23:45;;;;;;;10.48;8.02;;;;;;;;;;5053894;28;20287;-81
2022/03/10 07:26:13;;;;;;;12.35;7.47;;;;;;;;;;5054114;28;20202;-82
2022/03/10 07:28:42;;;;;;;8.00;6.95;;;;;;;;;;5053431;28;20225;-81
2022/03/10 07:31:10;;;;;;;8.55;7.20;;;;;;;;;;5053572;28;20213;-82
2022/03/10 07:33:37;;;;;;;9.73;7.72;;;;;;;;;;5054032;28;20206;-82
2022/03/10 07:36:05;;;;;;;9.57;7.25;;;;;;;;;;5054177;28;20617;-81
2022/03/10 07:38:32;;;;;;;8.60;6.97;;;;;;;;;;5053507;28;20212;-81
2022/03/10 07:41:00;;;;;;;8.57;7.07;;;;;;;;;;5055307;28;20201;-80
2022/03/10 07:43:27;;;;;;;7.25;6.40;;;;;;;;;;5053329;28;20213;-83
2022/03/10 07:45:56;;;;;;;7.57;6.05;;;;;;;;;;5052377;28;20256;-82
2022/03/10 07:48:23;;;;;;;7.07;6.22;;;;;;;;;;5053385;28;20268;-82
2022/03/10 07:50:50;;;;;;;6.80;6.13;;;;;;;;;;5053113;28;20644;-82
2022/03/10 07:53:19;;;;;;;5.88;5.25;;;;;;;;;;5053444;28;20206;-82
2022/03/10 07:55:46;;;;;;;5.60;5.05;;;;;;;;;;5056413;28;20236;-83
2022/03/10 07:58:14;;;;;;;6.63;5.85;;;;;;;;;;5056388;28;20689;-82
2022/03/10 08:00:41;;;;;;;5.90;5.30;;;;;;;;;;5056236;28;20268;-82
2022/03/10 08:03:10;;;;;;;6.75;4.70;;;;;;;;;;5056771;28;20243;-83
2022/03/10 08:05:37;;;;;;;6.88;6.03;;;;;;;;;;5055727;28;20222;-83
2022/03/10 08:08:05;;;;;;;7.78;5.97;;;;;;;;;;5056297;28;20205;-83
2022/03/10 08:10:33;;;;;;;5.28;4.78;;;;;;;;;;5055827;28;20209;-81
2022/03/10 08:13:00;;;;;;;6.43;5.82;;;;;;;;;;5053652;28;20212;-82
2022/03/10 08:15:28;;;;;;;6.78;6.15;;;;;;;;;;5055592;28;20245;-82
2022/03/10 08:17:55;;;;;;;5.80;5.22;;;;;;;;;;5056562;28;20255;-84
2022/03/10 08:20:24;;;;;;;6.57;5.78;;;;;;;;;;5056021;28;20296;-84
2022/03/10 08:22:51;;;;;;;5.50;5.00;;;;;;;;;;5055348;28;20221;-83
2022/03/10 08:25:19;;;;;;;5.55;5.05;;;;;;;;;;5054585;28;20237;-83
2022/03/10 08:27:48;;;;;;;6.28;5.20;;;;;;;;;;5055278;28;20220;-83
2022/03/10 08:30:16;;;;;;;5.28;4.78;;;;;;;;;;5062882;28;20201;-84
2022/03/10 08:32:45;;;;;;;5.45;4.70;;;;;;;;;;5065590;28;20209;-83
2022/03/10 08:35:16;;;;;;;6.55;5.00;;;;;;;;;;5054997;28;20237;-83
2022/03/10 08:37:45;;;;;;;6.07;5.43;;;;;;;;;;5054676;28;20232;-83
2022/03/10 08:40:15;;;;;;;5.63;5.13;;;;;;;;;;5055022;28;20654;-83
2022/03/10 08:42:43;;;;;;;5.50;4.90;;;;;;;;;;5055029;28;20666;-83
2022/03/10 08:45:11;;;;;;;6.38;5.68;;;;;;;;;;5054875;28;20256;-83
2022/03/10 08:47:38;;;;;;;6.43;5.43;;;;;;;;;;5055128;28;20247;-83
2022/03/10 08:50:08;;;;;;;5.93;5.28;;;;;;;;;;5055004;28;20503;-83
2022/03/10 08:52:35;;;;;;;5.72;5.10;;;;;;;;;;5054431;28;20213;-82
2022/03/10 08:55:05;;;;;;;6.82;5.75;;;;;;;;;;5054069;28;20231;-83
2022/03/10 08:57:33;;;;;;;6.00;5.40;;;;;;;;;;5054523;28;20638;-82
2022/03/10 09:00:00;;;;;;;5.22;4.72;;;;;;;;;;5054663;28;20429;-82
2022/03/10 09:02:28;;;;;;;5.75;5.05;;;;;;;;;;5055732;28;20205;-84
2022/03/10 09:04:55;;;;;;;5.63;5.13;;;;;;;;;;5055988;28;20717;-84
2022/03/10 09:07:23;;;;;;;5.07;4.57;;;;;;;;;;5056838;28;20201;-84
2022/03/10 09:09:50;;;;;;;5.43;4.93;;;;;;;;;;5055062;28;20642;-82
2022/03/10 09:12:18;;;;;;;5.40;4.97;;;;;;;;;;5054846;28;20197;-83
2022/03/10 09:14:46;;;;;;;6.63;5.78;;;;;;;;;;5054545;28;20232;-83
2022/03/10 09:17:14;;;;;;;5.55;5.00;;;;;;;;;;5055788;28;20585;-83
2022/03/10 09:19:42;;;;;;;5.32;4.82;;;;;;;;;;5056589;28;20680;-82
2022/03/10 09:22:09;;;;;;;6.47;5.78;;;;;;;;;;5056479;28;20205;-84
2022/03/10 09:24:37;;;;;;;7.65;6.70;;;;;;;;;;5074628;28;20221;-84
2022/03/10 09:27:05;;;;;;;5.38;4.88;;;;;;;;;;5076544;28;20207;-83
2022/03/10 09:29:34;;;;;;;5.85;5.03;;;;;;;;;;5075573;28;20306;-83
2022/03/10 09:32:01;;;;;;;6.80;6.10;;;;;;;;;;5074969;28;20213;-84
2022/03/10 09:34:29;;;;;;;6.60;5.10;;;;;;;;;;5077438;28;20229;-84
2022/03/10 09:36:56;;;;;;;7.03;5.80;;;;;;;;;;5064806;28;20226;-84
2022/03/10 09:39:23;;;;;;;5.47;4.93;;;;;;;;;;5054828;28;20252;-84
2022/03/10 09:41:51;;;;;;;5.10;4.60;;;;;;;;;;5055798;28;20216;-85
2022/03/10 09:44:20;;;;;;;6.47;5.07;;;;;;;;;;5064861;28;20220;-84
2022/03/10 09:46:51;;;;;;;6.68;4.95;;;;;;;;;;5070065;28;20210;-84
2022/03/10 09:49:18;;;;;;;4.93;4.43;;;;;;;;;;5054234;28;20218;-83
2022/03/10 09:51:46;;;;;;;5.65;5.00;;;;;;;;;;5072288;28;20630;-84
2022/03/10 09:54:14;;;;;;;6.97;5.55;;;;;;;;;;5075115;28;20233;-84
2022/03/10 09:56:42;;;;;;;6.03;5.43;;;;;;;;;;5065552;28;20217;-83
2022/03/10 09:59:10;;;;;;;6.03;5.50;;;;;;;;;;5053156;28;20201;-85
2022/03/10 10:01:38;;;;;;;6.13;5.53;;;;;;;;;;5054099;28;20218;-85
2022/03/10 10:04:07;;;;;;;4.55;4.15;;;;;;;;;;5053231;28;20229;-84
2022/03/10 10:07:01;;;;;;;3.60;3.30;;;;;;;;;;5052687;28;20292;-83
2022/03/10 10:09:41;;;;;;;5.97;5.38;;;;;;;;;;5046918;28;20222;-84
2022/03/10 10:12:11;;;;;;;4.63;4.18;;;;;;;;;;5052289;28;20247;-84
2022/03/10 10:14:40;;;;;;;4.68;4.28;;;;;;;;;;5052908;28;20293;-84
2022/03/10 10:17:08;;;;;;;6.05;5.47;;;;;;;;;;5051215;28;20689;-83
2022/03/10 10:19:38;;;;;;;5.60;5.10;;;;;;;;;;5052712;28;20208;-84
2022/03/10 10:22:16;;;;;;;4.53;4.13;;;;;;;;;;5052514;28;20212;-84
2022/03/10 10:24:50;;;;;;;5.65;5.13;;;;;;;;;;5070202;28;20247;-84
2022/03/10 10:27:20;;;;;;;5.60;5.10;;;;;;;;;;5071680;28;20269;-84
2022/03/10 10:29:50;;;;;;;4.65;4.25;;;;;;;;;;5071807;28;20572;-84
2022/03/10 10:32:28;;;;;;;6.32;5.35;;;;;;;;;;5071430;28;20209;-84
2022/03/10 10:35:06;;;;;;;4.85;4.38;;;;;;;;;;5071810;28;20224;-85
2022/03/10 10:37:35;;;;;;;4.65;4.25;;;;;;;;;;5063037;28;20217;-83
2022/03/10 10:40:03;;;;;;;4.78;4.32;;;;;;;;;;5052361;28;20205;-84
2022/03/10 10:42:32;;;;;;;4.10;3.78;;;;;;;;;;5051599;28;20284;-83
2022/03/10 10:45:00;;;;;;;4.72;4.30;;;;;;;;;;5052112;28;20295;-84
2022/03/10 10:47:29;;;;;;;5.78;5.15;;;;;;;;;;5067878;28;20205;-84
2022/03/10 10:50:07;;;;;;;3.83;3.50;;;;;;;;;;5050198;28;20213;-85
2022/03/10 10:52:39;;;;;;;5.38;4.00;;;;;;;;;;5053015;28;20224;-85
2022/03/10 10:55:10;;;;;;;5.28;4.15;;;;;;;;;;5051879;28;20226;-84
2022/03/10 10:57:39;;;;;;;5.13;4.63;;;;;;;;;;5057242;28;20259;-84
2022/03/10 11:00:11;;;;;;;6.35;5.75;;;;;;;;;;5054220;28;20209;-84
2022/03/10 11:02:43;;;;;;;4.88;4.43;;;;;;;;;;5052115;28;20658;-85
2022/03/10 11:05:14;;;;;;;5.57;5.07;;;;;;;;;;5058663;28;20231;-84
2022/03/10 11:07:43;;;;;;;4.38;4.05;;;;;;;;;;5052395;28;20350;-85
2022/03/10 11:10:12;;;;;;;9.63;6.70;;;;;;;;;;5072021;28;20196;-84
2022/03/10 11:12:41;;;;;;;6.82;5.45;;;;;;;;;;5045909;28;20284;-84
2022/03/10 11:15:10;;;;;;;5.70;5.22;;;;;;;;;;5046730;28;20649;-83
2022/03/10 11:17:38;;;;;;;6.28;5.75;;;;;;;;;;5052243;28;20316;-84
2022/03/10 11:20:11;;;;;;;5.68;5.15;;;;;;;;;;5052497;28;20233;-84
2022/03/10 11:22:58;;;;;;;5.40;4.93;;;;;;;;;;5052050;28;20210;-83
2022/03/10 11:25:43;;;;;;;4.40;4.00;;;;;;;;;;5052502;28;20222;-84
2022/03/10 11:28:15;;;;;;;3.95;3.55;;;;;;;;;;5071809;28;20296;-84
2022/03/10 11:30:42;;;;;;;4.80;4.32;;;;;;;;;;5069025;28;20209;-84
2022/03/10 11:33:16;;;;;;;5.57;5.07;;;;;;;;;;5075163;28;20232;-84
2022/03/10 11:35:48;;;;;;;5.93;5.32;;;;;;;;;;5051107;28;20645;-84
2022/03/10 11:38:18;;;;;;;5.43;4.93;;;;;;;;;;5061012;28;20225;-83
2022/03/10 11:40:50;;;;;;;6.72;5.65;;;;;;;;;;5062858;28;20270;-84
2022/03/10 11:43:31;;;;;;;6.88;6.18;;;;;;;;;;5062339;28;20608;-84
2022/03/10 11:46:20;;;;;;;6.07;4.97;;;;;;;;;;5056145;28;20209;-85
2022/03/10 11:49:06;;;;;;;6.00;5.32;;;;;;;;;;5051813;28;20213;-84
2022/03/10 11:52:03;;;;;;;5.22;4.53;;;;;;;;;;5059720;28;20648;-85
2022/03/10 11:54:32;;;;;;;4.40;4.00;;;;;;;;;;5056565;28;20701;-85
2022/03/10 11:57:05;;;;;;;7.75;5.57;;;;;;;;;;5056605;28;20202;-85
2022/03/10 11:59:50;;;;;;;6.45;5.80;;;;;;;;;;5069904;28;20212;-84
2022/03/10 12:02:47;;;;;;;5.88;5.10;;;;;;;;;;5059900;28;20205;-84
2022/03/10 12:05:15;;;;;;;6.82;6.18;;;;;;;;;;5065036;28;20236;-85
2022/03/10 12:07:47;;;;;;;6.63;5.60;;;;;;;;;;5051009;28;20240;-84
2022/03/10 12:10:15;;;;;;;4.45;4.05;;;;;;;;;;5051020;28;20217;-84
2022/03/10 12:12:45;;;;;;;4.35;3.92;;;;;;;;;;5065201;28;20685;-84
2022/03/10 12:15:50;;;;;;;5.25;4.57;;;;;;;;;;5058029;28;20297;-85
2022/03/10 12:18:20;;;;;;;6.82;6.13;;;;;;;;;;5065501;28;20216;-86
2022/03/10 12:20:49;;;;;;;6.20;5.10;;;;;;;;;;5063655;28;20240;-85
2022/03/10 12:23:19;;;;;;;3.90;3.60;;;;;;;;;;5063164;28;20291;-85
2022/03/10 12:25:49;;;;;;;4.03;3.70;;;;;;;;;;5056891;28;20339;-84
2022/03/10 12:28:31;;;;;;;6.30;5.25;;;;;;;;;;5056925;28;20209;-84
2022/03/10 12:31:12;;;;;;;4.82;4.43;;;;;;;;;;5074552;28;20216;-84
2022/03/10 12:33:47;;;;;;;4.82;3.78;;;;;;;;;;5067528;28;20256;-85
2022/03/10 12:36:16;;;;;;;4.20;3.85;;;;;;;;;;5058736;28;20255;-85
2022/03/10 12:38:46;;;;;;;3.97;3.67;;;;;;;;;;5056631;28;20230;-85
2022/03/10 12:41:17;;;;;;;3.50;3.22;;;;;;;;;;5071732;28;20293;-84
2022/03/10 12:43:45;;;;;;;3.35;3.05;;;;;;;;;;5062682;28;20292;-86
2022/03/10 12:46:12;;;;;;;2.72;2.47;;;;;;;;;;5062830;28;20200;-84
2022/03/10 12:48:52;;;;;;;3.08;2.80;;;;;;;;;;5067115;28;20561;-84
2022/03/10 12:51:24;;;;;;;3.67;3.38;;;;;;;;;;5050077;28;20209;-84
2022/03/10 12:53:53;;;;;;;3.20;2.90;;;;;;;;;;5067497;28;20228;-84
2022/03/10 12:56:21;;;;;;;3.83;3.50;;;;;;;;;;5068292;28;20200;-85
2022/03/10 12:58:51;;;;;;;5.82;3.92;;;;;;;;;;5056642;28;20268;-84
2022/03/10 13:01:19;;;;;;;3.30;3.00;;;;;;;;;;5068846;28;20205;-84
2022/03/10 13:03:48;;;;;;;3.33;3.03;;;;;;;;;;5073568;28;20221;-84
2022/03/10 13:06:16;;;;;;;3.53;3.22;;;;;;;;;;5056789;28;20266;-83
2022/03/10 13:08:52;;;;;;;3.25;2.95;;;;;;;;;;5067792;28;20274;-83
2022/03/10 13:11:22;;;;;;;3.67;3.38;;;;;;;;;;5064982;28;20219;-83
2022/03/10 13:14:04;;;;;;;3.35;3.05;;;;;;;;;;5051094;28;20225;-83
2022/03/10 13:16:36;;;;;;;3.35;3.05;;;;;;;;;;5058629;28;20300;-84
2022/03/10 13:19:05;;;;;;;4.10;3.75;;;;;;;;;;5060593;28;20770;-83
2022/03/10 13:21:32;;;;;;;3.40;3.10;;;;;;;;;;5072917;28;20209;-84
2022/03/10 13:24:01;;;;;;;3.47;3.15;;;;;;;;;;5062862;28;20220;-84
2022/03/10 13:26:28;;;;;;;2.78;2.50;;;;;;;;;;5073916;28;20216;-84
2022/03/10 13:28:56;;;;;;;3.20;2.90;;;;;;;;;;5062132;28;20210;-84
2022/03/10 13:31:31;;;;;;;3.20;2.83;;;;;;;;;;5054365;28;20197;-84
2022/03/10 13:33:59;;;;;;;3.55;3.25;;;;;;;;;;5053700;28;20236;-83
2022/03/10 13:36:26;;;;;;;3.70;3.28;;;;;;;;;;5055164;28;20205;-84
2022/03/10 13:38:54;;;;;;;3.55;3.25;;;;;;;;;;5054008;28;20236;-83
2022/03/10 13:41:22;;;;;;;2.63;2.42;;;;;;;;;;5053958;28;20678;-83
2022/03/10 13:43:50;;;;;;;3.42;3.13;;;;;;;;;;5053988;28;20249;-83
2022/03/10 13:46:20;;;;;;;3.13;2.83;;;;;;;;;;5053978;28;20220;-84
2022/03/10 13:48:50;;;;;;;3.33;3.10;;;;;;;;;;5063535;28;20233;-83
2022/03/10 13:51:20;;;;;;;2.58;2.38;;;;;;;;;;5054026;28;20230;-83
2022/03/10 13:54:00;;;;;;;3.70;3.20;;;;;;;;;;5047427;28;20308;-83
2022/03/10 13:56:39;;;;;;;2.80;2.60;;;;;;;;;;5054346;28;20225;-81
2022/03/10 13:59:08;;;;;;;3.95;2.63;;;;;;;;;;5054679;28;20225;-83
2022/03/10 14:01:38;;;;;;;3.15;2.85;;;;;;;;;;5055178;28;20240;-84
2022/03/10 14:04:10;;;;;;;3.80;3.03;;;;;;;;;;5053400;28;20225;-82
2022/03/10 14:06:44;;;;;;;3.35;3.05;;;;;;;;;;5053179;28;20216;-83
2022/03/10 14:09:20;;;;;;;2.97;2.78;;;;;;;;;;5053719;28;20208;-82
2022/03/10 14:11:49;;;;;;;2.55;2.35;;;;;;;;;;5051555;28;20819;-81
2022/03/10 14:14:17;;;;;;;3.13;2.83;;;;;;;;;;5059090;28;20232;-80
2022/03/10 14:16:54;;;;;;;3.15;2.83;;;;;;;;;;5071917;28;20204;-77
2022/03/10 14:19:23;;;;;;;2.58;2.38;;;;;;;;;;5058021;28;20279;-80
2022/03/10 14:21:56;;;;;;;3.72;2.83;;;;;;;;;;5071722;28;20204;-80
2022/03/10 14:24:27;;;;;;;3.33;3.03;;;;;;;;;;5072034;28;20606;-80
2022/03/10 14:27:05;;;;;;;2.50;2.30;;;;;;;;;;5071973;28;20212;-80
2022/03/10 14:29:38;;;;;;;3.22;2.90;;;;;;;;;;5072096;28;20201;-80
2022/03/10 14:32:07;;;;;;;2.80;2.60;;;;;;;;;;5071575;28;20232;-80
2022/03/10 14:34:35;;;;;;;3.47;3.17;;;;;;;;;;5071810;28;20225;-78
2022/03/10 14:37:04;;;;;;;2.67;2.45;;;;;;;;;;5071653;28;20209;-79
2022/03/10 14:39:31;;;;;;;3.05;2.78;;;;;;;;;;5071717;28;20225;-79
2022/03/10 14:42:00;;;;;;;3.00;2.70;;;;;;;;;;5071133;28;20209;-79
2022/03/10 14:44:27;;;;;;;2.75;2.55;;;;;;;;;;5071042;28;20221;-79
2022/03/10 14:46:54;;;;;;;2.60;2.40;;;;;;;;;;5071254;28;20208;-79
2022/03/10 14:49:22;;;;;;;2.72;2.53;;;;;;;;;;5055855;28;20209;-80
2022/03/10 14:51:49;;;;;;;2.85;2.55;;;;;;;;;;5052145;28;20209;-79
2022/03/10 14:54:17;;;;;;;2.90;2.70;;;;;;;;;;5052090;28;20240;-80
2022/03/10 14:56:44;;;;;;;2.50;2.30;;;;;;;;;;5052658;28;20296;-80
2022/03/10 14:59:14;;;;;;;2.80;2.60;;;;;;;;;;5052462;28;20229;-80
2022/03/10 15:01:42;;;;;;;3.10;2.90;;;;;;;;;;5052132;28;20739;-80